Time;durP1;ratioP1;P1;durP2;ratioP2;P2;SDS_P1;SDS_P2;PMS_P1;PMS_P2;Temp;Humidity;BMP_temperature;BMP_pressure;BME280_temperature;BME280_humidity;BME280_pressure;Samples;Min_cycle;Max_cycle;Signal;HPM_P1;HPM_P2
2022/01/18 00:01:13;;;;;;;11.13;5.57;;;;;;;;;;4944080;29;20572;-63
2022/01/18 00:03:40;;;;;;;9.82;5.57;;;;;;;;;;4944903;29;20134;-62
2022/01/18 00:06:07;;;;;;;9.25;4.97;;;;;;;;;;4940154;29;20085;-62
2022/01/18 00:08:35;;;;;;;8.70;5.18;;;;;;;;;;4941938;29;20133;-62
2022/01/18 00:11:01;;;;;;;8.55;5.10;;;;;;;;;;4945389;29;20131;-62
2022/01/18 00:13:39;;;;;;;8.68;5.70;;;;;;;;;;4941703;29;20059;-61
2022/01/18 00:16:22;;;;;;;9.65;5.20;;;;;;;;;;4942612;29;20040;-62
2022/01/18 00:18:51;;;;;;;8.55;5.78;;;;;;;;;;4942454;29;20051;-61
2022/01/18 00:21:34;;;;;;;11.50;6.10;;;;;;;;;;4944494;29;20057;-62
2022/01/18 00:24:02;;;;;;;12.82;6.85;;;;;;;;;;4941162;29;20126;-61
2022/01/18 00:26:31;;;;;;;9.85;5.57;;;;;;;;;;4939613;29;20055;-61
2022/01/18 00:29:03;;;;;;;10.55;5.43;;;;;;;;;;4942718;29;20568;-62
2022/01/18 00:31:45;;;;;;;9.27;5.35;;;;;;;;;;4944147;29;20135;-62
2022/01/18 00:34:18;;;;;;;9.27;5.13;;;;;;;;;;4943912;29;20406;-62
2022/01/18 00:37:00;;;;;;;10.63;5.57;;;;;;;;;;4940038;29;20051;-62
2022/01/18 00:39:28;;;;;;;12.30;6.18;;;;;;;;;;4940814;29;20472;-62
2022/01/18 00:41:54;;;;;;;9.27;5.13;;;;;;;;;;4942785;29;20445;-62
2022/01/18 00:44:22;;;;;;;12.35;6.25;;;;;;;;;;4950384;29;20131;-62
2022/01/18 00:46:48;;;;;;;13.52;6.53;;;;;;;;;;4946378;28;20066;-62
2022/01/18 00:49:15;;;;;;;10.10;5.90;;;;;;;;;;4946665;29;20138;-61
2022/01/18 00:51:44;;;;;;;10.60;5.93;;;;;;;;;;4946849;29;20086;-62
2022/01/18 00:54:18;;;;;;;10.15;5.47;;;;;;;;;;4947593;29;20114;-62
2022/01/18 00:56:47;;;;;;;13.00;6.10;;;;;;;;;;4947359;29;20046;-62
2022/01/18 00:59:14;;;;;;;12.40;6.20;;;;;;;;;;4944916;29;20079;-62
2022/01/18 01:01:40;;;;;;;12.15;5.75;;;;;;;;;;4944370;29;20135;-62
2022/01/18 01:04:07;;;;;;;11.90;5.80;;;;;;;;;;4947468;29;20441;-62
2022/01/18 01:06:34;;;;;;;11.13;6.20;;;;;;;;;;4946481;29;20130;-61
2022/01/18 01:09:01;;;;;;;13.18;7.18;;;;;;;;;;4948227;29;20050;-62
2022/01/18 01:11:29;;;;;;;10.65;6.25;;;;;;;;;;4945000;29;20145;-62
2022/01/18 01:14:00;;;;;;;9.93;5.78;;;;;;;;;;4946665;29;20039;-60
2022/01/18 01:19:31;;;;;;;11.40;6.35;;;;;;;;;;4943020;29;20411;-62
2022/01/18 01:33:35;;;;;;;13.35;5.78;;;;;;;;;;4943592;29;20039;-58
2022/01/18 01:36:16;;;;;;;10.65;5.20;;;;;;;;;;4944687;29;20407;-60
2022/01/18 01:41:50;;;;;;;10.07;5.38;;;;;;;;;;4944006;29;20130;-62
2022/01/18 01:44:25;;;;;;;10.73;5.80;;;;;;;;;;4949133;29;20062;-63
2022/01/18 01:46:52;;;;;;;11.02;5.78;;;;;;;;;;4946413;28;20043;-62
2022/01/18 01:49:22;;;;;;;10.38;5.88;;;;;;;;;;4945806;29;20048;-62
2022/01/18 01:51:55;;;;;;;9.50;5.22;;;;;;;;;;4943946;29;20500;-62
2022/01/18 01:54:29;;;;;;;14.40;6.38;;;;;;;;;;4945909;28;20464;-62
2022/01/18 01:56:55;;;;;;;10.93;5.85;;;;;;;;;;4942662;29;20473;-62
2022/01/18 01:59:22;;;;;;;9.82;5.30;;;;;;;;;;4943316;29;20130;-62
2022/01/18 02:01:52;;;;;;;9.95;5.80;;;;;;;;;;4947331;29;20051;-63
2022/01/18 02:04:20;;;;;;;10.05;5.65;;;;;;;;;;4945091;29;20135;-63
2022/01/18 02:06:47;;;;;;;11.35;5.20;;;;;;;;;;4947845;29;20122;-62
2022/01/18 02:09:14;;;;;;;9.20;5.57;;;;;;;;;;4937134;29;20071;-61
2022/01/18 02:11:40;;;;;;;13.27;7.32;;;;;;;;;;4940778;29;20054;-61
2022/01/18 02:14:13;;;;;;;12.65;6.35;;;;;;;;;;4942323;29;20492;-61
2022/01/18 02:22:11;;;;;;;12.18;6.13;;;;;;;;;;4944535;29;20094;-62
2022/01/18 02:24:38;;;;;;;13.68;6.30;;;;;;;;;;4950216;29;20122;-61
2022/01/18 02:27:05;;;;;;;12.70;6.00;;;;;;;;;;4945638;29;20077;-62
2022/01/18 02:29:31;;;;;;;10.52;5.85;;;;;;;;;;4943468;29;20138;-62
2022/01/18 02:31:58;;;;;;;11.18;5.55;;;;;;;;;;4945243;29;20126;-60
2022/01/18 02:34:25;;;;;;;11.88;6.05;;;;;;;;;;4947750;29;20079;-61
2022/01/18 02:36:53;;;;;;;10.85;6.28;;;;;;;;;;4944213;29;20039;-59
2022/01/18 02:39:23;;;;;;;11.35;6.13;;;;;;;;;;4944371;29;20043;-62
2022/01/18 02:41:55;;;;;;;9.25;4.78;;;;;;;;;;4947580;29;20134;-57
2022/01/18 02:44:21;;;;;;;10.73;6.65;;;;;;;;;;4945339;29;20488;-61
2022/01/18 02:46:48;;;;;;;11.23;6.00;;;;;;;;;;4946238;29;20071;-62
2022/01/18 02:49:15;;;;;;;11.73;6.40;;;;;;;;;;4941360;29;20130;-62
2022/01/18 02:51:41;;;;;;;11.15;6.20;;;;;;;;;;4942540;29;20130;-61
2022/01/18 02:54:09;;;;;;;14.10;6.78;;;;;;;;;;4945381;29;20077;-62
2022/01/18 02:56:41;;;;;;;12.02;6.63;;;;;;;;;;4948040;29;20130;-62
2022/01/18 02:59:18;;;;;;;10.98;6.15;;;;;;;;;;4947007;29;20466;-62
2022/01/18 03:04:29;;;;;;;10.95;6.50;;;;;;;;;;4945269;29;20102;-62
2022/01/18 03:06:56;;;;;;;11.75;6.63;;;;;;;;;;4945426;28;20071;-60
2022/01/18 03:09:23;;;;;;;13.10;6.13;;;;;;;;;;4947244;29;20118;-62
2022/01/18 03:11:51;;;;;;;11.27;6.63;;;;;;;;;;4946418;29;20074;-61
2022/01/18 03:14:17;;;;;;;13.15;7.28;;;;;;;;;;4943950;29;20118;-62
2022/01/18 03:16:44;;;;;;;14.43;7.15;;;;;;;;;;4942089;29;20751;-61
2022/01/18 03:19:10;;;;;;;12.45;7.25;;;;;;;;;;4941310;29;20067;-62
2022/01/18 03:21:37;;;;;;;11.10;7.03;;;;;;;;;;4947879;29;20087;-62
2022/01/18 03:24:31;;;;;;;12.82;6.25;;;;;;;;;;4945383;29;20039;-61
2022/01/18 03:29:43;;;;;;;15.43;6.78;;;;;;;;;;4943969;29;20062;-61
2022/01/18 03:32:10;;;;;;;12.73;6.28;;;;;;;;;;4945203;29;20138;-62
2022/01/18 03:34:36;;;;;;;12.68;6.72;;;;;;;;;;4945142;29;20130;-61
2022/01/18 03:37:04;;;;;;;13.75;7.22;;;;;;;;;;4941575;29;20226;-59
2022/01/18 03:39:30;;;;;;;12.88;7.05;;;;;;;;;;4944555;29;20138;-62
2022/01/18 03:42:15;;;;;;;11.90;7.13;;;;;;;;;;4947147;29;20091;-62
2022/01/18 03:44:45;;;;;;;16.77;7.47;;;;;;;;;;4943401;29;20055;-61
2022/01/18 03:47:13;;;;;;;13.98;7.10;;;;;;;;;;4947182;29;20043;-60
2022/01/18 03:49:40;;;;;;;12.05;6.43;;;;;;;;;;4946063;29;20043;-62
2022/01/18 03:52:07;;;;;;;12.00;6.43;;;;;;;;;;4939981;29;20146;-61
2022/01/18 03:54:41;;;;;;;11.82;6.03;;;;;;;;;;4941272;29;20131;-63
2022/01/18 03:57:08;;;;;;;11.32;6.07;;;;;;;;;;4946824;29;20039;-63
2022/01/18 03:59:35;;;;;;;12.75;6.50;;;;;;;;;;4941967;29;20052;-63
2022/01/18 04:02:03;;;;;;;14.80;5.93;;;;;;;;;;4941916;29;20043;-63
2022/01/18 04:04:29;;;;;;;11.02;6.53;;;;;;;;;;4944066;29;20093;-63
2022/01/18 04:06:56;;;;;;;11.50;6.45;;;;;;;;;;4931113;29;20070;-63
2022/01/18 04:09:23;;;;;;;12.43;7.13;;;;;;;;;;4942657;29;20127;-63
2022/01/18 04:11:49;;;;;;;12.52;6.75;;;;;;;;;;4941344;29;20130;-63
2022/01/18 04:14:16;;;;;;;12.77;7.60;;;;;;;;;;4935548;29;20052;-62
2022/01/18 04:17:00;;;;;;;12.82;7.13;;;;;;;;;;4945340;28;20515;-63
2022/01/18 04:25:49;;;;;;;12.25;6.45;;;;;;;;;;4950240;29;20129;-62
2022/01/18 04:28:01;;;;;;;11.57;6.45;;;;;;;;;;4946182;29;20547;-62
2022/01/18 04:30:27;;;;;;;13.70;7.65;;;;;;;;;;4949763;29;20417;-63
2022/01/18 04:32:54;;;;;;;14.13;7.00;;;;;;;;;;4951314;29;20129;-63
2022/01/18 04:35:22;;;;;;;11.98;6.13;;;;;;;;;;4951306;29;20122;-63
2022/01/18 04:37:48;;;;;;;17.13;7.32;;;;;;;;;;4944583;29;20055;-59
2022/01/18 04:40:18;;;;;;;13.32;7.90;;;;;;;;;;4949777;29;20127;-62
2022/01/18 04:43:13;;;;;;;11.63;6.50;;;;;;;;;;4944819;29;20080;-61
2022/01/18 04:48:28;;;;;;;14.55;7.90;;;;;;;;;;4948357;28;20218;-63
2022/01/18 04:50:59;;;;;;;12.48;6.63;;;;;;;;;;4946530;29;20039;-62
2022/01/18 04:53:27;;;;;;;16.17;9.30;;;;;;;;;;4941872;29;20077;-62
2022/01/18 04:55:56;;;;;;;15.63;8.93;;;;;;;;;;4947941;29;20047;-62
2022/01/18 04:58:23;;;;;;;13.05;7.20;;;;;;;;;;4940305;29;20181;-62
2022/01/18 05:00:51;;;;;;;14.85;7.07;;;;;;;;;;4942734;29;20142;-61
2022/01/18 05:03:18;;;;;;;13.45;7.43;;;;;;;;;;4942629;29;20123;-62
2022/01/18 05:05:45;;;;;;;15.15;8.10;;;;;;;;;;4946207;29;20052;-62
2022/01/18 05:08:16;;;;;;;16.90;7.80;;;;;;;;;;4948472;29;20098;-62
2022/01/18 05:10:43;;;;;;;16.00;8.38;;;;;;;;;;4944052;29;20066;-61
2022/01/18 05:13:24;;;;;;;14.13;7.60;;;;;;;;;;4946443;29;20357;-62
2022/01/18 05:15:59;;;;;;;13.48;7.47;;;;;;;;;;4944263;29;20072;-62
2022/01/18 05:21:20;;;;;;;12.98;6.63;;;;;;;;;;4943041;29;20098;-62
2022/01/18 05:23:47;;;;;;;14.25;7.28;;;;;;;;;;4936866;29;20043;-62
2022/01/18 05:26:14;;;;;;;15.65;6.85;;;;;;;;;;4950073;29;20135;-62
2022/01/18 05:28:41;;;;;;;13.35;7.13;;;;;;;;;;4945601;29;20059;-62
2022/01/18 05:31:07;;;;;;;14.95;7.50;;;;;;;;;;4941815;29;20126;-62
2022/01/18 05:33:34;;;;;;;12.07;6.72;;;;;;;;;;4947191;29;20435;-62
2022/01/18 05:36:00;;;;;;;15.07;6.47;;;;;;;;;;4944948;29;20093;-62
2022/01/18 05:38:27;;;;;;;10.50;5.88;;;;;;;;;;4945384;29;20429;-60
2022/01/18 05:40:55;;;;;;;15.05;7.25;;;;;;;;;;4946943;29;20048;-62
2022/01/18 05:43:22;;;;;;;14.57;7.05;;;;;;;;;;4944112;29;20122;-62
2022/01/18 05:45:48;;;;;;;14.65;6.97;;;;;;;;;;4946056;29;20071;-62
2022/01/18 05:48:15;;;;;;;11.68;6.85;;;;;;;;;;4945967;28;20130;-62
2022/01/18 05:50:41;;;;;;;12.77;6.97;;;;;;;;;;4944749;29;20086;-62
2022/01/18 05:53:08;;;;;;;16.88;7.50;;;;;;;;;;4941526;28;20148;-62
2022/01/18 05:55:34;;;;;;;15.90;8.48;;;;;;;;;;4946064;29;20409;-59
2022/01/18 05:58:02;;;;;;;18.65;10.25;;;;;;;;;;4942716;29;20130;-61
2022/01/18 06:00:30;;;;;;;45.83;21.17;;;;;;;;;;4944357;29;20134;-62
2022/01/18 06:03:03;;;;;;;36.38;17.75;;;;;;;;;;4949618;29;20047;-61
2022/01/18 06:08:20;;;;;;;22.27;13.30;;;;;;;;;;4939704;29;20126;-61
2022/01/18 06:10:47;;;;;;;29.95;14.45;;;;;;;;;;4940652;29;20133;-62
2022/01/18 06:13:15;;;;;;;22.45;12.02;;;;;;;;;;4942868;29;20047;-62
2022/01/18 06:15:41;;;;;;;20.67;11.88;;;;;;;;;;4939293;29;20479;-62
2022/01/18 06:18:08;;;;;;;21.95;11.80;;;;;;;;;;4946446;29;20134;-62
2022/01/18 06:20:34;;;;;;;17.48;10.80;;;;;;;;;;4945677;29;20070;-62
2022/01/18 06:23:01;;;;;;;16.88;9.80;;;;;;;;;;4943698;29;20078;-62
2022/01/18 06:25:27;;;;;;;16.48;9.52;;;;;;;;;;4944541;29;20122;-62
2022/01/18 06:27:54;;;;;;;13.10;7.20;;;;;;;;;;4947620;29;20134;-62
2022/01/18 06:30:22;;;;;;;15.95;8.98;;;;;;;;;;4942282;29;20477;-62
2022/01/18 06:32:49;;;;;;;16.08;8.55;;;;;;;;;;4945632;29;20145;-62
2022/01/18 06:35:16;;;;;;;12.43;7.43;;;;;;;;;;4939666;29;20074;-60
2022/01/18 06:37:42;;;;;;;11.25;6.90;;;;;;;;;;4940327;29;20043;-61
2022/01/18 06:40:11;;;;;;;14.30;7.82;;;;;;;;;;4940184;28;20147;-61
2022/01/18 06:42:38;;;;;;;14.88;6.60;;;;;;;;;;4944337;29;20043;-61
2022/01/18 06:45:05;;;;;;;15.73;7.72;;;;;;;;;;4935467;29;20131;-61
2022/01/18 06:47:33;;;;;;;13.35;7.85;;;;;;;;;;4943990;28;20142;-61
2022/01/18 06:50:00;;;;;;;16.50;7.90;;;;;;;;;;4942748;29;20130;-60
2022/01/18 06:52:26;;;;;;;20.10;7.57;;;;;;;;;;4938923;29;20455;-61
2022/01/18 06:54:53;;;;;;;13.75;6.13;;;;;;;;;;4941896;29;20110;-62
2022/01/18 06:57:19;;;;;;;18.52;8.63;;;;;;;;;;4947952;29;20456;-61
2022/01/18 06:59:46;;;;;;;14.45;8.25;;;;;;;;;;4943393;29;20123;-61
2022/01/18 07:02:14;;;;;;;15.68;7.22;;;;;;;;;;4940822;29;20519;-62
2022/01/18 07:04:42;;;;;;;15.27;7.55;;;;;;;;;;4937608;29;20044;-62
2022/01/18 07:07:09;;;;;;;13.68;7.60;;;;;;;;;;4947428;29;20419;-61
2022/01/18 07:09:35;;;;;;;21.17;7.63;;;;;;;;;;4939567;29;20155;-63
2022/01/18 07:12:08;;;;;;;19.30;7.82;;;;;;;;;;4939415;29;20131;-59
2022/01/18 07:14:34;;;;;;;16.63;7.18;;;;;;;;;;4940278;29;20122;-62
2022/01/18 07:17:01;;;;;;;25.13;10.15;;;;;;;;;;4939581;29;20127;-62
2022/01/18 07:19:27;;;;;;;23.35;11.00;;;;;;;;;;4937299;29;20075;-61
2022/01/18 07:21:55;;;;;;;24.05;12.10;;;;;;;;;;4937764;29;20081;-61
2022/01/18 07:24:36;;;;;;;21.42;12.07;;;;;;;;;;4943022;29;20086;-61
2022/01/18 07:27:03;;;;;;;19.13;8.93;;;;;;;;;;4933590;29;20047;-61
2022/01/18 07:29:30;;;;;;;20.85;9.82;;;;;;;;;;4941741;29;20150;-62
2022/01/18 07:31:56;;;;;;;29.17;12.75;;;;;;;;;;4938687;29;20126;-62
2022/01/18 07:34:23;;;;;;;43.15;19.67;;;;;;;;;;4947287;29;20130;-62
2022/01/18 07:36:49;;;;;;;45.30;21.40;;;;;;;;;;4942023;29;20078;-62
2022/01/18 07:39:17;;;;;;;28.33;14.55;;;;;;;;;;4946264;29;20134;-62
2022/01/18 07:41:44;;;;;;;22.80;12.38;;;;;;;;;;4941102;29;20051;-62
2022/01/18 07:44:11;;;;;;;20.27;11.07;;;;;;;;;;4938246;29;20150;-62
2022/01/18 07:46:37;;;;;;;18.83;10.38;;;;;;;;;;4935689;29;20039;-62
2022/01/18 07:49:04;;;;;;;18.88;9.82;;;;;;;;;;4939624;29;20126;-63
2022/01/18 07:51:30;;;;;;;20.85;9.80;;;;;;;;;;4943762;29;20086;-63
2022/01/18 07:53:57;;;;;;;17.05;8.75;;;;;;;;;;4941071;29;20458;-62
2022/01/18 07:56:25;;;;;;;20.58;9.93;;;;;;;;;;4945988;29;20130;-62
2022/01/18 07:58:51;;;;;;;25.70;9.40;;;;;;;;;;4945668;29;20078;-62
2022/01/18 08:01:19;;;;;;;19.35;9.68;;;;;;;;;;4941059;29;20146;-60
2022/01/18 08:03:46;;;;;;;20.88;9.60;;;;;;;;;;4943359;29;20480;-62
2022/01/18 08:06:12;;;;;;;22.33;11.02;;;;;;;;;;4934210;29;20126;-60
2022/01/18 08:08:39;;;;;;;29.38;17.73;;;;;;;;;;4938358;29;20131;-62
2022/01/18 08:11:06;;;;;;;36.08;19.75;;;;;;;;;;4942163;29;20472;-62
2022/01/18 08:13:39;;;;;;;28.60;18.58;;;;;;;;;;4935304;29;20142;-62
2022/01/18 08:16:22;;;;;;;26.23;16.10;;;;;;;;;;4933680;29;20072;-62
2022/01/18 08:18:50;;;;;;;21.30;11.30;;;;;;;;;;4941554;29;20574;-62
2022/01/18 08:21:16;;;;;;;23.67;13.10;;;;;;;;;;4938270;29;20429;-62
2022/01/18 08:23:43;;;;;;;17.20;8.57;;;;;;;;;;4939938;29;20083;-62
2022/01/18 08:26:09;;;;;;;16.95;8.68;;;;;;;;;;4936243;29;20146;-62
2022/01/18 08:28:37;;;;;;;17.38;8.75;;;;;;;;;;4940831;29;20532;-60
2022/01/18 08:31:04;;;;;;;16.75;8.88;;;;;;;;;;4936561;29;20064;-61
2022/01/18 08:33:32;;;;;;;16.98;8.90;;;;;;;;;;4939880;29;20130;-62
2022/01/18 08:35:59;;;;;;;16.80;7.90;;;;;;;;;;4945045;29;20507;-62
2022/01/18 08:38:26;;;;;;;16.25;8.77;;;;;;;;;;4941147;29;20043;-60
2022/01/18 08:40:54;;;;;;;18.42;8.75;;;;;;;;;;4946013;29;20090;-59
2022/01/18 08:43:20;;;;;;;16.10;8.35;;;;;;;;;;4941062;29;20047;-62
2022/01/18 08:45:48;;;;;;;17.67;7.78;;;;;;;;;;4940775;29;20122;-62
2022/01/18 08:48:15;;;;;;;13.48;7.18;;;;;;;;;;4939859;29;20436;-60
2022/01/18 08:50:42;;;;;;;15.43;7.25;;;;;;;;;;4940805;29;20142;-62
2022/01/18 08:53:09;;;;;;;19.63;7.22;;;;;;;;;;4939467;29;20587;-63
2022/01/18 08:55:35;;;;;;;17.45;7.60;;;;;;;;;;4942931;29;20075;-63
2022/01/18 08:58:03;;;;;;;18.90;8.13;;;;;;;;;;4944206;29;20130;-61
2022/01/18 09:00:30;;;;;;;19.52;8.15;;;;;;;;;;4939847;29;20134;-62
2022/01/18 09:03:01;;;;;;;17.20;8.98;;;;;;;;;;4937487;29;20130;-62
2022/01/18 09:05:28;;;;;;;23.50;9.23;;;;;;;;;;4945252;29;20078;-62
2022/01/18 09:07:56;;;;;;;30.48;9.18;;;;;;;;;;4943622;29;20130;-63
2022/01/18 09:10:25;;;;;;;14.75;8.77;;;;;;;;;;4949795;29;20067;-58
2022/01/18 09:12:51;;;;;;;15.85;9.07;;;;;;;;;;4946657;29;20051;-61
2022/01/18 09:15:18;;;;;;;16.83;8.40;;;;;;;;;;4945084;29;20125;-62
2022/01/18 09:17:45;;;;;;;17.50;8.32;;;;;;;;;;4943935;29;20047;-62
2022/01/18 09:20:14;;;;;;;17.80;9.10;;;;;;;;;;4943752;29;20538;-60
2022/01/18 09:22:43;;;;;;;17.33;8.93;;;;;;;;;;4944943;29;20055;-62
2022/01/18 09:25:11;;;;;;;18.80;8.63;;;;;;;;;;4941508;29;20043;-62
2022/01/18 09:27:38;;;;;;;18.35;9.65;;;;;;;;;;4939085;29;20079;-63
2022/01/18 09:30:06;;;;;;;18.95;9.82;;;;;;;;;;4942909;29;20555;-63
2022/01/18 09:32:32;;;;;;;16.08;8.77;;;;;;;;;;4947775;29;20093;-61
2022/01/18 09:34:59;;;;;;;21.98;9.70;;;;;;;;;;4945763;29;20073;-62
2022/01/18 09:37:26;;;;;;;17.83;8.93;;;;;;;;;;4939720;29;20430;-60
2022/01/18 09:39:53;;;;;;;20.95;11.25;;;;;;;;;;4941331;29;20440;-63
2022/01/18 09:42:21;;;;;;;18.27;9.82;;;;;;;;;;4943568;29;20043;-63
2022/01/18 09:44:48;;;;;;;21.48;9.55;;;;;;;;;;4944009;29;20039;-62
2022/01/18 09:47:15;;;;;;;19.95;10.80;;;;;;;;;;4937079;29;20126;-61
2022/01/18 09:49:42;;;;;;;21.35;11.55;;;;;;;;;;4943017;29;20215;-62
2022/01/18 09:52:08;;;;;;;20.50;10.95;;;;;;;;;;4944296;29;20078;-61
2022/01/18 09:54:37;;;;;;;18.45;10.52;;;;;;;;;;4940217;29;20055;-63
2022/01/18 09:57:04;;;;;;;16.02;8.65;;;;;;;;;;4938017;29;20504;-63
2022/01/18 09:59:31;;;;;;;18.92;10.32;;;;;;;;;;4938765;29;20126;-63
2022/01/18 10:02:00;;;;;;;19.27;9.48;;;;;;;;;;4951170;29;20349;-63
2022/01/18 10:04:31;;;;;;;17.38;8.80;;;;;;;;;;4945012;29;20047;-63
2022/01/18 10:06:58;;;;;;;16.02;8.48;;;;;;;;;;4940219;29;20059;-63
2022/01/18 10:09:26;;;;;;;16.73;8.73;;;;;;;;;;4941952;29;20043;-63
2022/01/18 10:12:11;;;;;;;18.63;9.00;;;;;;;;;;4937976;29;20135;-63
2022/01/18 10:14:39;;;;;;;19.90;9.60;;;;;;;;;;4943901;29;20053;-63
2022/01/18 10:17:06;;;;;;;16.58;9.18;;;;;;;;;;4941532;29;20135;-63
2022/01/18 10:19:36;;;;;;;18.27;9.27;;;;;;;;;;4945124;29;20071;-62
2022/01/18 10:22:14;;;;;;;18.15;8.90;;;;;;;;;;4941783;29;20043;-63
2022/01/18 10:24:42;;;;;;;20.60;9.80;;;;;;;;;;4944642;29;20051;-61
2022/01/18 10:27:10;;;;;;;15.45;9.35;;;;;;;;;;4930694;29;20527;-62
2022/01/18 10:29:39;;;;;;;15.90;8.85;;;;;;;;;;4945759;29;20135;-62
2022/01/18 10:32:14;;;;;;;16.55;8.90;;;;;;;;;;4946288;29;20106;-61
2022/01/18 10:35:04;;;;;;;17.05;9.50;;;;;;;;;;4941152;29;20050;-62
2022/01/18 10:37:33;;;;;;;13.63;7.72;;;;;;;;;;4942491;29;20477;-62
2022/01/18 10:40:00;;;;;;;13.45;7.20;;;;;;;;;;4941822;29;20545;-62
2022/01/18 10:42:32;;;;;;;18.17;8.07;;;;;;;;;;4942218;29;20126;-62
2022/01/18 10:45:02;;;;;;;13.63;7.95;;;;;;;;;;4937076;29;20369;-62
2022/01/18 10:47:28;;;;;;;13.82;7.82;;;;;;;;;;4947152;28;20159;-60
2022/01/18 10:49:55;;;;;;;47.60;11.05;;;;;;;;;;4943096;29;20126;-61
2022/01/18 10:52:24;;;;;;;23.33;8.88;;;;;;;;;;4943032;29;20107;-62
2022/01/18 10:54:52;;;;;;;27.60;9.70;;;;;;;;;;4940973;29;20046;-62
2022/01/18 10:57:20;;;;;;;71.15;13.75;;;;;;;;;;4941820;29;21337;-62
2022/01/18 10:59:49;;;;;;;13.32;7.07;;;;;;;;;;4942351;29;20436;-62
2022/01/18 11:02:22;;;;;;;22.80;7.90;;;;;;;;;;4946017;29;20497;-63
2022/01/18 11:04:49;;;;;;;17.75;9.02;;;;;;;;;;4942646;29;20170;-62
2022/01/18 11:07:17;;;;;;;23.85;7.85;;;;;;;;;;4945819;29;20118;-62
2022/01/18 11:09:44;;;;;;;17.00;7.32;;;;;;;;;;4941938;29;20451;-62
2022/01/18 11:12:11;;;;;;;19.13;7.63;;;;;;;;;;4941066;29;20074;-63
2022/01/18 11:14:43;;;;;;;15.40;7.03;;;;;;;;;;4941410;29;20071;-61
2022/01/18 11:17:13;;;;;;;10.68;5.00;;;;;;;;;;4938172;29;20055;-62
2022/01/18 11:19:40;;;;;;;10.77;5.88;;;;;;;;;;4943350;29;20634;-62
2022/01/18 11:22:10;;;;;;;11.65;6.55;;;;;;;;;;4945030;29;20047;-62
2022/01/18 11:24:38;;;;;;;4.88;2.70;;;;;;;;;;4941522;29;20074;-62
2022/01/18 11:27:08;;;;;;;5.65;2.40;;;;;;;;;;4938302;29;20081;-60
2022/01/18 11:29:36;;;;;;;10.93;5.50;;;;;;;;;;4941451;29;20528;-62
2022/01/18 11:32:03;;;;;;;12.00;4.93;;;;;;;;;;4939628;29;20050;-63
2022/01/18 11:34:37;;;;;;;7.07;3.13;;;;;;;;;;4939875;29;20070;-62
2022/01/18 11:37:14;;;;;;;3.38;1.65;;;;;;;;;;4937162;29;20066;-62
2022/01/18 11:39:41;;;;;;;4.43;1.70;;;;;;;;;;4942788;29;20119;-61
2022/01/18 11:42:09;;;;;;;5.32;1.73;;;;;;;;;;4942515;29;20126;-62
2022/01/18 11:44:36;;;;;;;5.10;1.40;;;;;;;;;;4942547;29;20495;-62
2022/01/18 11:47:04;;;;;;;4.32;1.60;;;;;;;;;;4943109;28;20442;-62
2022/01/18 11:49:33;;;;;;;4.45;1.80;;;;;;;;;;4944211;29;20082;-59
2022/01/18 11:52:04;;;;;;;4.85;1.92;;;;;;;;;;4938750;29;20048;-63
2022/01/18 11:54:40;;;;;;;10.73;2.55;;;;;;;;;;4937429;29;20460;-62
2022/01/18 11:57:36;;;;;;;5.03;1.50;;;;;;;;;;4939536;29;20488;-62
2022/01/18 12:00:27;;;;;;;7.50;3.20;;;;;;;;;;4941446;29;20039;-62
2022/01/18 12:02:56;;;;;;;5.00;2.55;;;;;;;;;;4944107;29;20119;-62
2022/01/18 12:05:25;;;;;;;6.75;2.40;;;;;;;;;;4943082;29;20483;-62
2022/01/18 12:08:01;;;;;;;6.80;2.63;;;;;;;;;;4939760;29;20040;-62
2022/01/18 12:10:43;;;;;;;7.18;3.03;;;;;;;;;;4942088;29;20094;-62
2022/01/18 12:13:12;;;;;;;3.60;2.03;;;;;;;;;;4939468;29;20118;-63
2022/01/18 12:15:50;;;;;;;7.00;2.30;;;;;;;;;;4940650;29;20046;-63
2022/01/18 12:18:18;;;;;;;9.18;2.35;;;;;;;;;;4939813;29;20043;-59
2022/01/18 12:20:47;;;;;;;10.48;2.83;;;;;;;;;;4946241;29;20082;-60
2022/01/18 12:23:17;;;;;;;8.73;2.47;;;;;;;;;;4946273;29;20087;-58
2022/01/18 12:25:55;;;;;;;5.70;3.10;;;;;;;;;;4943491;29;20506;-61
2022/01/18 12:29:18;;;;;;;8.55;3.17;;;;;;;;;;4922768;29;20543;-62
2022/01/18 12:34:35;;;;;;;6.82;2.67;;;;;;;;;;4941398;29;20608;-62
2022/01/18 12:37:38;;;;;;;6.88;1.98;;;;;;;;;;4943865;29;20043;-62
2022/01/18 12:40:08;;;;;;;5.25;2.63;;;;;;;;;;4941433;29;20075;-60
2022/01/18 12:45:22;;;;;;;9.02;2.88;;;;;;;;;;4940660;29;20086;-63
2022/01/18 12:47:52;;;;;;;6.35;3.67;;;;;;;;;;4940842;29;20044;-61
2022/01/18 12:50:22;;;;;;;8.90;3.85;;;;;;;;;;4945370;29;20063;-63
2022/01/18 12:52:58;;;;;;;9.05;3.72;;;;;;;;;;4944936;29;20050;-62
2022/01/18 12:55:36;;;;;;;6.00;3.22;;;;;;;;;;4945027;29;20138;-62
2022/01/18 12:58:09;;;;;;;11.38;2.60;;;;;;;;;;4946893;29;20039;-63
2022/01/18 13:00:42;;;;;;;8.05;2.65;;;;;;;;;;4928656;29;20074;-63
2022/01/18 13:03:09;;;;;;;8.05;2.25;;;;;;;;;;4945462;29;20126;-62
2022/01/18 13:05:41;;;;;;;6.47;2.58;;;;;;;;;;4946236;29;20163;-63
2022/01/18 13:08:10;;;;;;;5.80;2.97;;;;;;;;;;4944101;29;20126;-63
2022/01/18 13:10:39;;;;;;;7.47;4.07;;;;;;;;;;4942650;29;20130;-63
2022/01/18 13:13:06;;;;;;;15.05;6.85;;;;;;;;;;4941807;29;20133;-63
2022/01/18 13:26:55;;;;;;;6.47;2.97;;;;;;;;;;4943826;29;20079;-61
2022/01/18 13:29:24;;;;;;;6.63;2.58;;;;;;;;;;4940886;29;20106;-62
2022/01/18 13:32:00;;;;;;;9.07;3.33;;;;;;;;;;4942083;29;20040;-62
2022/01/18 13:34:30;;;;;;;6.03;2.65;;;;;;;;;;4944783;29;20092;-63
2022/01/18 13:36:58;;;;;;;8.95;3.85;;;;;;;;;;4938728;29;20040;-63
2022/01/18 13:39:29;;;;;;;12.68;4.75;;;;;;;;;;4946339;29;20044;-63
2022/01/18 13:41:58;;;;;;;9.43;3.55;;;;;;;;;;4946427;29;20036;-63
2022/01/18 13:44:25;;;;;;;8.43;3.13;;;;;;;;;;4942617;29;20082;-62
2022/01/18 13:46:51;;;;;;;6.82;3.08;;;;;;;;;;4940362;29;20078;-63
2022/01/18 13:49:23;;;;;;;14.40;5.47;;;;;;;;;;4943832;29;20071;-63
2022/01/18 13:52:04;;;;;;;20.70;7.20;;;;;;;;;;4942044;29;20376;-63
2022/01/18 13:54:54;;;;;;;10.68;4.70;;;;;;;;;;4942149;29;20565;-62
2022/01/18 13:57:23;;;;;;;8.50;2.90;;;;;;;;;;4945161;29;20043;-62
2022/01/18 13:59:51;;;;;;;5.85;2.53;;;;;;;;;;4944845;29;20154;-60
2022/01/18 14:02:20;;;;;;;4.50;3.03;;;;;;;;;;4943480;29;20078;-62
2022/01/18 14:04:49;;;;;;;7.00;2.35;;;;;;;;;;4945533;29;20079;-63
2022/01/18 14:07:15;;;;;;;5.22;2.53;;;;;;;;;;4947318;29;20081;-62
2022/01/18 14:09:42;;;;;;;16.45;3.38;;;;;;;;;;4944130;29;20067;-62
2022/01/18 14:12:17;;;;;;;10.75;3.67;;;;;;;;;;4936997;29;20078;-63
2022/01/18 14:14:44;;;;;;;8.43;2.70;;;;;;;;;;4945769;29;20043;-63
2022/01/18 14:17:15;;;;;;;8.13;3.35;;;;;;;;;;4923381;29;20095;-63
2022/01/18 14:19:44;;;;;;;7.05;3.08;;;;;;;;;;4941059;29;20430;-62
2022/01/18 14:22:14;;;;;;;8.68;2.95;;;;;;;;;;4943022;29;20050;-63
2022/01/18 14:24:42;;;;;;;7.55;2.53;;;;;;;;;;4940572;29;20464;-62
2022/01/18 14:27:11;;;;;;;8.25;2.88;;;;;;;;;;4939874;29;20066;-62
2022/01/18 14:29:59;;;;;;;7.60;2.72;;;;;;;;;;4938799;29;20118;-62
2022/01/18 14:32:30;;;;;;;9.00;2.70;;;;;;;;;;4943424;29;20047;-63
2022/01/18 14:34:58;;;;;;;6.72;2.72;;;;;;;;;;4943767;29;20461;-62
2022/01/18 14:37:42;;;;;;;6.13;2.33;;;;;;;;;;4944002;29;20493;-63
2022/01/18 14:40:14;;;;;;;9.35;3.70;;;;;;;;;;4941232;29;20046;-63
2022/01/18 14:42:45;;;;;;;11.32;4.10;;;;;;;;;;4939942;29;20118;-63
2022/01/18 14:45:32;;;;;;;6.85;3.53;;;;;;;;;;4940437;29;20105;-62
2022/01/18 14:48:00;;;;;;;8.70;2.85;;;;;;;;;;4943396;29;20476;-63
2022/01/18 14:50:27;;;;;;;8.40;4.18;;;;;;;;;;4936508;29;20075;-63
2022/01/18 14:52:55;;;;;;;7.57;2.90;;;;;;;;;;4945253;29;20515;-62
2022/01/18 14:55:24;;;;;;;7.45;4.20;;;;;;;;;;4946078;29;20047;-62
2022/01/18 14:57:52;;;;;;;7.00;2.80;;;;;;;;;;4946970;29;20047;-62
2022/01/18 15:00:21;;;;;;;6.50;2.90;;;;;;;;;;4939992;29;20146;-61
2022/01/18 15:02:48;;;;;;;7.97;2.97;;;;;;;;;;4944554;29;20126;-60
2022/01/18 15:05:15;;;;;;;7.32;2.92;;;;;;;;;;4942319;29;20141;-63
2022/01/18 15:07:42;;;;;;;13.43;4.20;;;;;;;;;;4943637;29;20074;-62
2022/01/18 15:10:10;;;;;;;11.45;4.40;;;;;;;;;;4946015;29;20472;-62
2022/01/18 15:12:38;;;;;;;8.80;4.40;;;;;;;;;;4946850;29;20067;-62
2022/01/18 15:15:06;;;;;;;9.20;3.90;;;;;;;;;;4937819;29;20058;-63
2022/01/18 15:17:34;;;;;;;15.05;4.00;;;;;;;;;;4943481;29;20533;-62
2022/01/18 15:20:01;;;;;;;13.63;6.05;;;;;;;;;;4944060;29;20077;-63
2022/01/18 15:22:28;;;;;;;9.15;3.42;;;;;;;;;;4943512;29;20139;-62
2022/01/18 15:24:55;;;;;;;16.65;5.45;;;;;;;;;;4943748;29;20074;-63
2022/01/18 15:27:21;;;;;;;15.52;8.55;;;;;;;;;;4942644;29;20567;-62
2022/01/18 15:29:48;;;;;;;12.25;5.10;;;;;;;;;;4945360;29;20127;-62
2022/01/18 15:32:15;;;;;;;13.60;6.60;;;;;;;;;;4937103;29;20130;-61
2022/01/18 15:34:43;;;;;;;13.50;4.95;;;;;;;;;;4941528;29;20130;-61
2022/01/18 15:37:09;;;;;;;8.27;4.13;;;;;;;;;;4939152;29;20048;-62
2022/01/18 15:39:36;;;;;;;11.15;4.18;;;;;;;;;;4946944;29;20131;-59
2022/01/18 15:42:04;;;;;;;9.00;4.00;;;;;;;;;;4947060;29;20552;-62
2022/01/18 15:44:31;;;;;;;11.23;5.03;;;;;;;;;;4941284;29;20138;-62